Poston, Arizona
Current Conditions -  °F | °C
As of 5:52 PM on Friday 21 Nov 2014 (Local Time) from KBLH Reporting Station
Clear Clear  
Wind Chill: 68°   Ceiling: Unl
Heat Index: 68°   Visibility: 10mi
Dew Point: 33°   Wind: 5mph
Humidity: 27%   Direction: 120°ESE
Pressure: 29.9"   Gusts: NA
Location:  33.96°N, 114.42°W
Report Text: KBLH 220052Z AUTO 12004KT 10SM CLR 20/01 A2990 RMK AO2 SLP122 T02000006
Loading
Personal Weather Stations






























Interactive Weather Map New forecast layout! Learn more

10-Day Weather Forecast

Advertisements
Track Severe Weather on mobile